sensor_id;sensor_type;location;lat;lon;timestamp;P1;durP1;ratioP1;P2;durP2;ratioP2
57025;SDS011;43961;52.940;6.834;2022-07-22T00:00:12;5.07;;;2.88;;
57025;SDS011;43961;52.940;6.834;2022-07-22T00:02:39;6.53;;;3.53;;
57025;SDS011;43961;52.940;6.834;2022-07-22T00:05:05;10.88;;;3.05;;
57025;SDS011;43961;52.940;6.834;2022-07-22T00:07:31;6.70;;;2.95;;
57025;SDS011;43961;52.940;6.834;2022-07-22T00:09:57;9.88;;;4.22;;
57025;SDS011;43961;52.940;6.834;2022-07-22T00:12:23;7.88;;;3.28;;
57025;SDS011;43961;52.940;6.834;2022-07-22T00:14:49;11.70;;;4.35;;
57025;SDS011;43961;52.940;6.834;2022-07-22T00:17:14;15.82;;;5.00;;
57025;SDS011;43961;52.940;6.834;2022-07-22T00:19:40;7.90;;;4.57;;
57025;SDS011;43961;52.940;6.834;2022-07-22T00:22:06;10.65;;;4.22;;
57025;SDS011;43961;52.940;6.834;2022-07-22T00:24:33;11.57;;;5.10;;
57025;SDS011;43961;52.940;6.834;2022-07-22T00:26:58;18.52;;;5.22;;
57025;SDS011;43961;52.940;6.834;2022-07-22T00:29:24;10.10;;;5.00;;
57025;SDS011;43961;52.940;6.834;2022-07-22T00:31:50;13.45;;;4.88;;
57025;SDS011;43961;52.940;6.834;2022-07-22T00:34:16;9.73;;;5.15;;
57025;SDS011;43961;52.940;6.834;2022-07-22T00:36:42;13.13;;;5.07;;
57025;SDS011;43961;52.940;6.834;2022-07-22T00:39:08;9.20;;;4.38;;
57025;SDS011;43961;52.940;6.834;2022-07-22T00:41:33;10.82;;;5.50;;
57025;SDS011;43961;52.940;6.834;2022-07-22T00:44:00;11.65;;;5.65;;
57025;SDS011;43961;52.940;6.834;2022-07-22T00:46:28;13.00;;;5.72;;
57025;SDS011;43961;52.940;6.834;2022-07-22T00:48:56;14.90;;;5.53;;
57025;SDS011;43961;52.940;6.834;2022-07-22T00:51:23;10.80;;;4.57;;
57025;SDS011;43961;52.940;6.834;2022-07-22T00:53:51;15.00;;;6.18;;
57025;SDS011;43961;52.940;6.834;2022-07-22T00:56:17;11.27;;;5.93;;
57025;SDS011;43961;52.940;6.834;2022-07-22T00:58:44;14.32;;;6.78;;
57025;SDS011;43961;52.940;6.834;2022-07-22T01:01:11;10.68;;;6.07;;
57025;SDS011;43961;52.940;6.834;2022-07-22T01:03:38;10.75;;;5.95;;
57025;SDS011;43961;52.940;6.834;2022-07-22T01:06:04;11.50;;;6.35;;
57025;SDS011;43961;52.940;6.834;2022-07-22T01:08:31;12.52;;;6.38;;
57025;SDS011;43961;52.940;6.834;2022-07-22T01:11:13;11.27;;;6.97;;
57025;SDS011;43961;52.940;6.834;2022-07-22T01:13:40;14.80;;;6.40;;
57025;SDS011;43961;52.940;6.834;2022-07-22T01:16:07;12.65;;;6.25;;
57025;SDS011;43961;52.940;6.834;2022-07-22T01:18:34;17.58;;;6.75;;
57025;SDS011;43961;52.940;6.834;2022-07-22T01:21:01;15.57;;;7.13;;
57025;SDS011;43961;52.940;6.834;2022-07-22T01:23:27;15.25;;;6.78;;
57025;SDS011;43961;52.940;6.834;2022-07-22T01:25:53;19.70;;;8.50;;
57025;SDS011;43961;52.940;6.834;2022-07-22T01:28:19;12.05;;;6.60;;
57025;SDS011;43961;52.940;6.834;2022-07-22T01:30:46;14.50;;;6.65;;
57025;SDS011;43961;52.940;6.834;2022-07-22T01:33:12;16.60;;;6.72;;
57025;SDS011;43961;52.940;6.834;2022-07-22T01:35:37;23.52;;;8.25;;
57025;SDS011;43961;52.940;6.834;2022-07-22T01:38:03;12.80;;;6.70;;
57025;SDS011;43961;52.940;6.834;2022-07-22T01:40:29;17.10;;;7.47;;
57025;SDS011;43961;52.940;6.834;2022-07-22T01:42:54;23.35;;;8.18;;
57025;SDS011;43961;52.940;6.834;2022-07-22T01:45:20;15.85;;;6.22;;
57025;SDS011;43961;52.940;6.834;2022-07-22T01:47:45;12.90;;;6.68;;
57025;SDS011;43961;52.940;6.834;2022-07-22T01:50:12;12.93;;;6.40;;
57025;SDS011;43961;52.940;6.834;2022-07-22T01:52:38;18.58;;;7.03;;
57025;SDS011;43961;52.940;6.834;2022-07-22T01:55:08;18.80;;;6.50;;
57025;SDS011;43961;52.940;6.834;2022-07-22T01:57:38;12.32;;;5.82;;
57025;SDS011;43961;52.940;6.834;2022-07-22T02:00:04;17.83;;;6.40;;
57025;SDS011;43961;52.940;6.834;2022-07-22T02:02:32;13.13;;;6.13;;
57025;SDS011;43961;52.940;6.834;2022-07-22T02:04:58;16.63;;;6.57;;
57025;SDS011;43961;52.940;6.834;2022-07-22T02:07:23;10.52;;;5.80;;
57025;SDS011;43961;52.940;6.834;2022-07-22T02:09:51;13.60;;;5.70;;
57025;SDS011;43961;52.940;6.834;2022-07-22T02:12:17;22.38;;;7.07;;
57025;SDS011;43961;52.940;6.834;2022-07-22T02:14:43;15.65;;;6.65;;
57025;SDS011;43961;52.940;6.834;2022-07-22T02:17:09;18.92;;;5.15;;
57025;SDS011;43961;52.940;6.834;2022-07-22T02:19:34;13.23;;;5.50;;
57025;SDS011;43961;52.940;6.834;2022-07-22T02:22:00;21.60;;;6.40;;
57025;SDS011;43961;52.940;6.834;2022-07-22T02:24:26;8.77;;;4.75;;
57025;SDS011;43961;52.940;6.834;2022-07-22T02:26:51;20.63;;;5.70;;
57025;SDS011;43961;52.940;6.834;2022-07-22T02:29:17;12.80;;;6.05;;
57025;SDS011;43961;52.940;6.834;2022-07-22T02:31:42;21.65;;;7.45;;
57025;SDS011;43961;52.940;6.834;2022-07-22T02:34:09;18.40;;;6.63;;
57025;SDS011;43961;52.940;6.834;2022-07-22T02:36:35;14.45;;;5.88;;
57025;SDS011;43961;52.940;6.834;2022-07-22T02:39:01;13.82;;;6.35;;
57025;SDS011;43961;52.940;6.834;2022-07-22T02:41:27;11.18;;;5.07;;
57025;SDS011;43961;52.940;6.834;2022-07-22T02:43:53;16.55;;;6.03;;
57025;SDS011;43961;52.940;6.834;2022-07-22T02:46:23;10.60;;;5.85;;
57025;SDS011;43961;52.940;6.834;2022-07-22T02:48:50;17.77;;;5.70;;
57025;SDS011;43961;52.940;6.834;2022-07-22T02:51:16;13.27;;;6.22;;
57025;SDS011;43961;52.940;6.834;2022-07-22T02:53:42;13.05;;;6.28;;
57025;SDS011;43961;52.940;6.834;2022-07-22T02:56:07;10.13;;;5.22;;
57025;SDS011;43961;52.940;6.834;2022-07-22T02:58:34;23.83;;;5.57;;
57025;SDS011;43961;52.940;6.834;2022-07-22T03:01:00;19.02;;;6.18;;
57025;SDS011;43961;52.940;6.834;2022-07-22T03:03:25;10.77;;;5.68;;
57025;SDS011;43961;52.940;6.834;2022-07-22T03:05:51;20.50;;;5.90;;
57025;SDS011;43961;52.940;6.834;2022-07-22T03:08:17;13.60;;;5.07;;
57025;SDS011;43961;52.940;6.834;2022-07-22T03:10:42;10.35;;;4.75;;
57025;SDS011;43961;52.940;6.834;2022-07-22T03:13:08;9.93;;;4.45;;
57025;SDS011;43961;52.940;6.834;2022-07-22T03:15:34;14.27;;;5.88;;
57025;SDS011;43961;52.940;6.834;2022-07-22T03:18:00;15.02;;;4.82;;
57025;SDS011;43961;52.940;6.834;2022-07-22T03:20:25;9.25;;;4.82;;
57025;SDS011;43961;52.940;6.834;2022-07-22T03:22:51;7.85;;;3.58;;
57025;SDS011;43961;52.940;6.834;2022-07-22T03:25:17;14.55;;;4.75;;
57025;SDS011;43961;52.940;6.834;2022-07-22T03:27:43;11.30;;;4.88;;
57025;SDS011;43961;52.940;6.834;2022-07-22T03:30:10;9.15;;;4.43;;
57025;SDS011;43961;52.940;6.834;2022-07-22T03:32:36;16.13;;;4.47;;
57025;SDS011;43961;52.940;6.834;2022-07-22T03:35:02;11.25;;;4.18;;
57025;SDS011;43961;52.940;6.834;2022-07-22T03:37:28;9.20;;;4.65;;
57025;SDS011;43961;52.940;6.834;2022-07-22T03:39:54;10.57;;;4.72;;
57025;SDS011;43961;52.940;6.834;2022-07-22T03:42:20;13.68;;;5.15;;
57025;SDS011;43961;52.940;6.834;2022-07-22T03:44:45;7.20;;;4.20;;
57025;SDS011;43961;52.940;6.834;2022-07-22T03:47:12;18.35;;;5.05;;
57025;SDS011;43961;52.940;6.834;2022-07-22T03:49:42;14.27;;;3.85;;
57025;SDS011;43961;52.940;6.834;2022-07-22T03:52:08;9.40;;;3.97;;
57025;SDS011;43961;52.940;6.834;2022-07-22T03:54:33;6.60;;;3.83;;
57025;SDS011;43961;52.940;6.834;2022-07-22T03:56:59;13.98;;;4.28;;
57025;SDS011;43961;52.940;6.834;2022-07-22T03:59:24;11.43;;;4.10;;
57025;SDS011;43961;52.940;6.834;2022-07-22T04:01:50;12.55;;;5.03;;
57025;SDS011;43961;52.940;6.834;2022-07-22T04:04:16;14.52;;;4.45;;
57025;SDS011;43961;52.940;6.834;2022-07-22T04:06:41;8.82;;;3.78;;
57025;SDS011;43961;52.940;6.834;2022-07-22T04:09:07;4.75;;;3.15;;
57025;SDS011;43961;52.940;6.834;2022-07-22T04:11:32;9.18;;;3.92;;
57025;SDS011;43961;52.940;6.834;2022-07-22T04:13:58;7.32;;;3.95;;
57025;SDS011;43961;52.940;6.834;2022-07-22T04:16:25;6.68;;;4.40;;
57025;SDS011;43961;52.940;6.834;2022-07-22T04:18:51;18.58;;;4.25;;
57025;SDS011;43961;52.940;6.834;2022-07-22T04:21:16;11.48;;;3.88;;
57025;SDS011;43961;52.940;6.834;2022-07-22T04:23:42;10.35;;;4.40;;
57025;SDS011;43961;52.940;6.834;2022-07-22T04:26:08;7.28;;;3.83;;
57025;SDS011;43961;52.940;6.834;2022-07-22T04:28:34;11.40;;;4.00;;
57025;SDS011;43961;52.940;6.834;2022-07-22T04:31:01;5.85;;;3.35;;
57025;SDS011;43961;52.940;6.834;2022-07-22T04:33:27;10.15;;;4.10;;
57025;SDS011;43961;52.940;6.834;2022-07-22T04:35:53;13.07;;;3.80;;
57025;SDS011;43961;52.940;6.834;2022-07-22T04:38:18;10.90;;;4.38;;
57025;SDS011;43961;52.940;6.834;2022-07-22T04:40:44;8.27;;;4.03;;
57025;SDS011;43961;52.940;6.834;2022-07-22T04:43:10;18.10;;;4.85;;
57025;SDS011;43961;52.940;6.834;2022-07-22T04:45:35;13.45;;;4.53;;
57025;SDS011;43961;52.940;6.834;2022-07-22T04:48:01;11.48;;;3.42;;
57025;SDS011;43961;52.940;6.834;2022-07-22T04:50:27;15.27;;;3.90;;
57025;SDS011;43961;52.940;6.834;2022-07-22T04:52:54;7.18;;;3.75;;
57025;SDS011;43961;52.940;6.834;2022-07-22T04:55:20;9.77;;;4.30;;
57025;SDS011;43961;52.940;6.834;2022-07-22T04:57:46;11.27;;;4.88;;
57025;SDS011;43961;52.940;6.834;2022-07-22T05:00:11;13.82;;;4.18;;
57025;SDS011;43961;52.940;6.834;2022-07-22T05:02:38;9.52;;;3.83;;
57025;SDS011;43961;52.940;6.834;2022-07-22T05:05:03;16.48;;;3.47;;
57025;SDS011;43961;52.940;6.834;2022-07-22T05:07:29;9.57;;;4.05;;
57025;SDS011;43961;52.940;6.834;2022-07-22T05:09:55;11.40;;;4.28;;
57025;SDS011;43961;52.940;6.834;2022-07-22T05:12:21;6.13;;;3.50;;
57025;SDS011;43961;52.940;6.834;2022-07-22T05:14:46;10.57;;;4.03;;
57025;SDS011;43961;52.940;6.834;2022-07-22T05:17:12;14.23;;;4.47;;
57025;SDS011;43961;52.940;6.834;2022-07-22T05:19:38;9.77;;;4.25;;
57025;SDS011;43961;52.940;6.834;2022-07-22T05:22:06;11.52;;;4.18;;
57025;SDS011;43961;52.940;6.834;2022-07-22T05:24:32;12.07;;;4.30;;
57025;SDS011;43961;52.940;6.834;2022-07-22T05:26:58;15.13;;;4.88;;
57025;SDS011;43961;52.940;6.834;2022-07-22T05:29:23;6.22;;;4.20;;
57025;SDS011;43961;52.940;6.834;2022-07-22T05:31:49;10.18;;;4.25;;
57025;SDS011;43961;52.940;6.834;2022-07-22T05:34:15;7.15;;;3.47;;
57025;SDS011;43961;52.940;6.834;2022-07-22T05:36:40;10.23;;;3.88;;
57025;SDS011;43961;52.940;6.834;2022-07-22T05:39:06;11.07;;;3.63;;
57025;SDS011;43961;52.940;6.834;2022-07-22T05:41:32;6.88;;;4.30;;
57025;SDS011;43961;52.940;6.834;2022-07-22T05:43:57;11.95;;;3.80;;
57025;SDS011;43961;52.940;6.834;2022-07-22T05:46:23;12.10;;;3.40;;
57025;SDS011;43961;52.940;6.834;2022-07-22T05:48:49;7.35;;;4.40;;
57025;SDS011;43961;52.940;6.834;2022-07-22T05:51:15;16.02;;;4.32;;
57025;SDS011;43961;52.940;6.834;2022-07-22T05:53:41;10.05;;;4.25;;
57025;SDS011;43961;52.940;6.834;2022-07-22T05:56:08;10.30;;;3.90;;
57025;SDS011;43961;52.940;6.834;2022-07-22T05:58:36;13.20;;;4.38;;
57025;SDS011;43961;52.940;6.834;2022-07-22T06:01:02;10.05;;;4.18;;
57025;SDS011;43961;52.940;6.834;2022-07-22T06:03:28;12.32;;;4.60;;
57025;SDS011;43961;52.940;6.834;2022-07-22T06:05:54;8.98;;;4.45;;
57025;SDS011;43961;52.940;6.834;2022-07-22T06:08:19;8.85;;;4.28;;
57025;SDS011;43961;52.940;6.834;2022-07-22T06:10:45;11.20;;;3.78;;
57025;SDS011;43961;52.940;6.834;2022-07-22T06:13:10;14.85;;;4.22;;
57025;SDS011;43961;52.940;6.834;2022-07-22T06:15:36;14.50;;;4.50;;
57025;SDS011;43961;52.940;6.834;2022-07-22T06:18:02;12.73;;;3.88;;
57025;SDS011;43961;52.940;6.834;2022-07-22T06:20:27;7.07;;;3.75;;
57025;SDS011;43961;52.940;6.834;2022-07-22T06:22:53;8.82;;;3.22;;
57025;SDS011;43961;52.940;6.834;2022-07-22T06:25:19;17.45;;;5.35;;
57025;SDS011;43961;52.940;6.834;2022-07-22T06:27:44;7.43;;;4.07;;
57025;SDS011;43961;52.940;6.834;2022-07-22T06:30:10;7.65;;;3.40;;
57025;SDS011;43961;52.940;6.834;2022-07-22T06:32:36;5.85;;;3.53;;
57025;SDS011;43961;52.940;6.834;2022-07-22T06:35:04;7.78;;;3.25;;
57025;SDS011;43961;52.940;6.834;2022-07-22T06:37:30;5.53;;;3.10;;
57025;SDS011;43961;52.940;6.834;2022-07-22T06:39:55;6.07;;;3.45;;
57025;SDS011;43961;52.940;6.834;2022-07-22T06:42:21;9.10;;;3.78;;
57025;SDS011;43961;52.940;6.834;2022-07-22T06:44:47;11.05;;;4.13;;
57025;SDS011;43961;52.940;6.834;2022-07-22T06:47:13;7.88;;;3.10;;
57025;SDS011;43961;52.940;6.834;2022-07-22T06:49:39;7.55;;;3.40;;
57025;SDS011;43961;52.940;6.834;2022-07-22T06:52:05;8.02;;;3.63;;
57025;SDS011;43961;52.940;6.834;2022-07-22T06:54:30;11.63;;;3.92;;
57025;SDS011;43961;52.940;6.834;2022-07-22T06:56:56;6.43;;;4.00;;
57025;SDS011;43961;52.940;6.834;2022-07-22T06:59:23;9.73;;;3.97;;
57025;SDS011;43961;52.940;6.834;2022-07-22T07:01:49;5.82;;;3.55;;
57025;SDS011;43961;52.940;6.834;2022-07-22T07:04:15;13.13;;;3.40;;
57025;SDS011;43961;52.940;6.834;2022-07-22T07:06:41;11.60;;;3.72;;
57025;SDS011;43961;52.940;6.834;2022-07-22T07:09:07;15.20;;;4.18;;
57025;SDS011;43961;52.940;6.834;2022-07-22T07:11:33;10.77;;;4.10;;
57025;SDS011;43961;52.940;6.834;2022-07-22T07:13:59;10.82;;;3.75;;
57025;SDS011;43961;52.940;6.834;2022-07-22T07:16:25;10.07;;;3.30;;
57025;SDS011;43961;52.940;6.834;2022-07-22T07:18:50;7.15;;;3.17;;
57025;SDS011;43961;52.940;6.834;2022-07-22T07:21:16;9.10;;;3.88;;
57025;SDS011;43961;52.940;6.834;2022-07-22T07:23:42;7.80;;;3.33;;
57025;SDS011;43961;52.940;6.834;2022-07-22T07:26:08;9.25;;;4.07;;
57025;SDS011;43961;52.940;6.834;2022-07-22T07:28:34;12.07;;;3.65;;
57025;SDS011;43961;52.940;6.834;2022-07-22T07:31:00;11.40;;;3.88;;
57025;SDS011;43961;52.940;6.834;2022-07-22T07:33:26;8.27;;;3.97;;
57025;SDS011;43961;52.940;6.834;2022-07-22T07:35:52;7.32;;;3.40;;
57025;SDS011;43961;52.940;6.834;2022-07-22T07:38:17;12.70;;;4.63;;
57025;SDS011;43961;52.940;6.834;2022-07-22T07:40:43;15.30;;;4.28;;
57025;SDS011;43961;52.940;6.834;2022-07-22T07:43:09;6.85;;;3.03;;
57025;SDS011;43961;52.940;6.834;2022-07-22T07:45:35;18.33;;;4.18;;
57025;SDS011;43961;52.940;6.834;2022-07-22T07:48:01;3.85;;;2.90;;
57025;SDS011;43961;52.940;6.834;2022-07-22T07:50:28;6.50;;;3.33;;
57025;SDS011;43961;52.940;6.834;2022-07-22T07:52:54;6.20;;;3.22;;
57025;SDS011;43961;52.940;6.834;2022-07-22T07:55:20;6.25;;;3.33;;
57025;SDS011;43961;52.940;6.834;2022-07-22T07:57:47;8.23;;;3.83;;
57025;SDS011;43961;52.940;6.834;2022-07-22T08:00:17;7.80;;;3.30;;
57025;SDS011;43961;52.940;6.834;2022-07-22T08:02:45;16.17;;;4.00;;
57025;SDS011;43961;52.940;6.834;2022-07-22T08:05:11;6.85;;;3.75;;
57025;SDS011;43961;52.940;6.834;2022-07-22T08:07:38;14.82;;;3.55;;
57025;SDS011;43961;52.940;6.834;2022-07-22T08:10:06;8.52;;;3.53;;
57025;SDS011;43961;52.940;6.834;2022-07-22T08:12:33;12.82;;;3.42;;
57025;SDS011;43961;52.940;6.834;2022-07-22T08:14:59;6.30;;;3.50;;
57025;SDS011;43961;52.940;6.834;2022-07-22T08:17:24;5.85;;;3.40;;
57025;SDS011;43961;52.940;6.834;2022-07-22T08:19:50;11.07;;;3.58;;
57025;SDS011;43961;52.940;6.834;2022-07-22T08:22:16;7.40;;;3.13;;
57025;SDS011;43961;52.940;6.834;2022-07-22T08:24:41;7.72;;;3.67;;
57025;SDS011;43961;52.940;6.834;2022-07-22T08:27:07;7.43;;;3.33;;
57025;SDS011;43961;52.940;6.834;2022-07-22T08:29:33;9.00;;;3.03;;
57025;SDS011;43961;52.940;6.834;2022-07-22T08:31:58;5.85;;;3.15;;
57025;SDS011;43961;52.940;6.834;2022-07-22T08:34:24;8.27;;;2.90;;
57025;SDS011;43961;52.940;6.834;2022-07-22T08:36:50;5.82;;;3.15;;
57025;SDS011;43961;52.940;6.834;2022-07-22T08:39:21;10.10;;;3.70;;
57025;SDS011;43961;52.940;6.834;2022-07-22T08:41:59;4.65;;;2.90;;
57025;SDS011;43961;52.940;6.834;2022-07-22T08:44:28;8.15;;;3.42;;
57025;SDS011;43961;52.940;6.834;2022-07-22T08:46:55;3.25;;;2.30;;
57025;SDS011;43961;52.940;6.834;2022-07-22T08:49:20;10.00;;;3.22;;
57025;SDS011;43961;52.940;6.834;2022-07-22T08:51:46;5.78;;;2.67;;
57025;SDS011;43961;52.940;6.834;2022-07-22T08:54:12;7.00;;;2.97;;
57025;SDS011;43961;52.940;6.834;2022-07-22T08:56:37;6.72;;;3.22;;
57025;SDS011;43961;52.940;6.834;2022-07-22T08:59:04;6.90;;;3.30;;
57025;SDS011;43961;52.940;6.834;2022-07-22T09:01:30;5.72;;;2.63;;
57025;SDS011;43961;52.940;6.834;2022-07-22T09:03:56;6.38;;;3.25;;
57025;SDS011;43961;52.940;6.834;2022-07-22T09:06:24;2.92;;;1.83;;
57025;SDS011;43961;52.940;6.834;2022-07-22T09:08:56;6.15;;;2.80;;
57025;SDS011;43961;52.940;6.834;2022-07-22T09:11:25;2.70;;;2.50;;
57025;SDS011;43961;52.940;6.834;2022-07-22T09:13:54;4.32;;;2.72;;
57025;SDS011;43961;52.940;6.834;2022-07-22T09:19:05;4.25;;;2.42;;
57025;SDS011;43961;52.940;6.834;2022-07-22T09:21:31;9.27;;;2.83;;
57025;SDS011;43961;52.940;6.834;2022-07-22T09:23:57;6.65;;;2.92;;
57025;SDS011;43961;52.940;6.834;2022-07-22T09:26:56;6.82;;;3.10;;
57025;SDS011;43961;52.940;6.834;2022-07-22T09:29:18;5.07;;;3.10;;
57025;SDS011;43961;52.940;6.834;2022-07-22T09:31:49;5.70;;;2.83;;
57025;SDS011;43961;52.940;6.834;2022-07-22T09:34:25;3.72;;;2.17;;
57025;SDS011;43961;52.940;6.834;2022-07-22T09:36:53;4.55;;;2.83;;
57025;SDS011;43961;52.940;6.834;2022-07-22T09:39:24;5.35;;;3.30;;
57025;SDS011;43961;52.940;6.834;2022-07-22T09:42:01;4.60;;;3.50;;
57025;SDS011;43961;52.940;6.834;2022-07-22T09:44:31;2.90;;;2.58;;
57025;SDS011;43961;52.940;6.834;2022-07-22T09:46:56;5.57;;;2.80;;
57025;SDS011;43961;52.940;6.834;2022-07-22T09:49:32;5.93;;;3.08;;
57025;SDS011;43961;52.940;6.834;2022-07-22T09:52:00;5.28;;;3.63;;
57025;SDS011;43961;52.940;6.834;2022-07-22T09:54:27;4.22;;;2.50;;
57025;SDS011;43961;52.940;6.834;2022-07-22T09:56:54;5.72;;;2.83;;
57025;SDS011;43961;52.940;6.834;2022-07-22T09:59:20;5.82;;;3.63;;
57025;SDS011;43961;52.940;6.834;2022-07-22T10:01:46;6.03;;;2.97;;
57025;SDS011;43961;52.940;6.834;2022-07-22T10:04:15;8.82;;;2.90;;
57025;SDS011;43961;52.940;6.834;2022-07-22T10:06:44;4.32;;;2.75;;
57025;SDS011;43961;52.940;6.834;2022-07-22T10:09:10;3.70;;;2.80;;
57025;SDS011;43961;52.940;6.834;2022-07-22T10:11:38;8.32;;;3.78;;
57025;SDS011;43961;52.940;6.834;2022-07-22T10:14:10;10.23;;;3.38;;
57025;SDS011;43961;52.940;6.834;2022-07-22T10:16:37;6.67;;;3.13;;
57025;SDS011;43961;52.940;6.834;2022-07-22T10:19:03;4.15;;;3.15;;
57025;SDS011;43961;52.940;6.834;2022-07-22T10:21:32;7.40;;;3.38;;
57025;SDS011;43961;52.940;6.834;2022-07-22T10:24:12;4.57;;;2.80;;
57025;SDS011;43961;52.940;6.834;2022-07-22T10:26:48;7.97;;;3.60;;
57025;SDS011;43961;52.940;6.834;2022-07-22T10:29:28;3.92;;;2.92;;
57025;SDS011;43961;52.940;6.834;2022-07-22T10:34:41;3.85;;;3.40;;
57025;SDS011;43961;52.940;6.834;2022-07-22T10:40:21;5.30;;;3.42;;
57025;SDS011;43961;52.940;6.834;2022-07-22T10:47:52;7.47;;;2.95;;
57025;SDS011;43961;52.940;6.834;2022-07-22T10:53:02;10.85;;;3.40;;
57025;SDS011;43961;52.940;6.834;2022-07-22T10:55:33;7.60;;;3.45;;
57025;SDS011;43961;52.940;6.834;2022-07-22T10:58:00;5.85;;;3.63;;
57025;SDS011;43961;52.940;6.834;2022-07-22T11:03:46;3.95;;;2.67;;
57025;SDS011;43961;52.940;6.834;2022-07-22T11:06:16;6.13;;;3.25;;
57025;SDS011;43961;52.940;6.834;2022-07-22T11:09:01;7.40;;;2.80;;
57025;SDS011;43961;52.940;6.834;2022-07-22T11:11:33;7.50;;;3.78;;
57025;SDS011;43961;52.940;6.834;2022-07-22T11:14:18;3.92;;;3.25;;
57025;SDS011;43961;52.940;6.834;2022-07-22T11:16:57;3.58;;;2.88;;
57025;SDS011;43961;52.940;6.834;2022-07-22T11:19:31;12.90;;;3.67;;
57025;SDS011;43961;52.940;6.834;2022-07-22T11:21:59;8.52;;;3.95;;
57025;SDS011;43961;52.940;6.834;2022-07-22T11:24:31;5.25;;;3.30;;
57025;SDS011;43961;52.940;6.834;2022-07-22T11:27:04;9.32;;;3.70;;
57025;SDS011;43961;52.940;6.834;2022-07-22T11:29:38;8.27;;;3.42;;
57025;SDS011;43961;52.940;6.834;2022-07-22T11:32:08;7.53;;;3.83;;
57025;SDS011;43961;52.940;6.834;2022-07-22T11:34:39;6.95;;;3.60;;
57025;SDS011;43961;52.940;6.834;2022-07-22T11:37:10;5.40;;;3.72;;
57025;SDS011;43961;52.940;6.834;2022-07-22T11:39:36;11.50;;;4.03;;
57025;SDS011;43961;52.940;6.834;2022-07-22T11:42:03;11.15;;;4.03;;
57025;SDS011;43961;52.940;6.834;2022-07-22T11:44:30;2.72;;;2.53;;
57025;SDS011;43961;52.940;6.834;2022-07-22T11:46:58;6.82;;;3.78;;
57025;SDS011;43961;52.940;6.834;2022-07-22T11:49:25;10.75;;;3.42;;
57025;SDS011;43961;52.940;6.834;2022-07-22T11:51:55;6.07;;;2.92;;
57025;SDS011;43961;52.940;6.834;2022-07-22T11:54:21;7.20;;;3.00;;
57025;SDS011;43961;52.940;6.834;2022-07-22T11:56:47;4.10;;;2.20;;
57025;SDS011;43961;52.940;6.834;2022-07-22T11:59:14;5.15;;;2.25;;
57025;SDS011;43961;52.940;6.834;2022-07-22T12:01:43;7.03;;;3.15;;
57025;SDS011;43961;52.940;6.834;2022-07-22T12:04:11;11.15;;;3.20;;
57025;SDS011;43961;52.940;6.834;2022-07-22T12:06:44;6.90;;;3.20;;
57025;SDS011;43961;52.940;6.834;2022-07-22T12:09:15;10.05;;;3.30;;
57025;SDS011;43961;52.940;6.834;2022-07-22T12:11:46;3.80;;;2.55;;
57025;SDS011;43961;52.940;6.834;2022-07-22T12:16:54;3.70;;;1.90;;
57025;SDS011;43961;52.940;6.834;2022-07-22T12:19:27;6.88;;;2.50;;
57025;SDS011;43961;52.940;6.834;2022-07-22T12:22:02;2.60;;;2.13;;
57025;SDS011;43961;52.940;6.834;2022-07-22T12:24:39;3.17;;;2.20;;
57025;SDS011;43961;52.940;6.834;2022-07-22T12:27:10;3.53;;;2.42;;
57025;SDS011;43961;52.940;6.834;2022-07-22T12:32:08;4.63;;;2.30;;
57025;SDS011;43961;52.940;6.834;2022-07-22T12:39:37;9.13;;;2.92;;
57025;SDS011;43961;52.940;6.834;2022-07-22T12:42:14;8.20;;;2.65;;
57025;SDS011;43961;52.940;6.834;2022-07-22T12:44:49;4.30;;;2.60;;
57025;SDS011;43961;52.940;6.834;2022-07-22T12:52:56;5.63;;;2.63;;
57025;SDS011;43961;52.940;6.834;2022-07-22T12:55:30;4.65;;;2.20;;
57025;SDS011;43961;52.940;6.834;2022-07-22T12:57:57;3.35;;;2.53;;
57025;SDS011;43961;52.940;6.834;2022-07-22T13:00:24;6.72;;;3.60;;
57025;SDS011;43961;52.940;6.834;2022-07-22T13:02:51;4.47;;;2.78;;
57025;SDS011;43961;52.940;6.834;2022-07-22T13:05:17;4.88;;;2.60;;
57025;SDS011;43961;52.940;6.834;2022-07-22T13:07:44;5.25;;;2.30;;
57025;SDS011;43961;52.940;6.834;2022-07-22T13:10:12;4.13;;;3.03;;
57025;SDS011;43961;52.940;6.834;2022-07-22T13:12:39;8.35;;;2.90;;
57025;SDS011;43961;52.940;6.834;2022-07-22T13:15:05;5.30;;;3.20;;
57025;SDS011;43961;52.940;6.834;2022-07-22T13:17:31;5.20;;;2.90;;
57025;SDS011;43961;52.940;6.834;2022-07-22T13:19:57;4.32;;;2.58;;
57025;SDS011;43961;52.940;6.834;2022-07-22T13:25:22;4.35;;;2.75;;
57025;SDS011;43961;52.940;6.834;2022-07-22T13:27:51;3.00;;;2.33;;
57025;SDS011;43961;52.940;6.834;2022-07-22T13:30:17;4.60;;;2.17;;
57025;SDS011;43961;52.940;6.834;2022-07-22T13:32:43;3.33;;;2.10;;
57025;SDS011;43961;52.940;6.834;2022-07-22T13:35:09;2.75;;;2.20;;
57025;SDS011;43961;52.940;6.834;2022-07-22T13:37:35;3.53;;;2.20;;
57025;SDS011;43961;52.940;6.834;2022-07-22T13:40:01;5.55;;;2.40;;
57025;SDS011;43961;52.940;6.834;2022-07-22T13:42:27;5.05;;;2.25;;
57025;SDS011;43961;52.940;6.834;2022-07-22T13:44:52;3.22;;;2.13;;
57025;SDS011;43961;52.940;6.834;2022-07-22T13:47:19;2.42;;;2.15;;
57025;SDS011;43961;52.940;6.834;2022-07-22T13:49:46;4.13;;;2.70;;
57025;SDS011;43961;52.940;6.834;2022-07-22T13:52:12;12.27;;;2.47;;
57025;SDS011;43961;52.940;6.834;2022-07-22T13:54:38;4.18;;;3.03;;
57025;SDS011;43961;52.940;6.834;2022-07-22T13:57:04;4.50;;;2.35;;
57025;SDS011;43961;52.940;6.834;2022-07-22T13:59:30;5.88;;;2.42;;
57025;SDS011;43961;52.940;6.834;2022-07-22T14:01:57;3.42;;;2.20;;
57025;SDS011;43961;52.940;6.834;2022-07-22T14:04:23;6.30;;;2.58;;
57025;SDS011;43961;52.940;6.834;2022-07-22T14:06:49;14.60;;;2.92;;
57025;SDS011;43961;52.940;6.834;2022-07-22T14:09:15;4.88;;;3.05;;
57025;SDS011;43961;52.940;6.834;2022-07-22T14:11:41;3.35;;;2.03;;
57025;SDS011;43961;52.940;6.834;2022-07-22T14:14:07;3.53;;;2.30;;
57025;SDS011;43961;52.940;6.834;2022-07-22T14:16:35;5.57;;;2.25;;
57025;SDS011;43961;52.940;6.834;2022-07-22T14:21:35;2.33;;;1.70;;
57025;SDS011;43961;52.940;6.834;2022-07-22T14:24:02;6.32;;;2.22;;
57025;SDS011;43961;52.940;6.834;2022-07-22T14:26:29;3.13;;;2.40;;
57025;SDS011;43961;52.940;6.834;2022-07-22T14:28:55;5.80;;;2.80;;
57025;SDS011;43961;52.940;6.834;2022-07-22T14:31:21;5.90;;;2.60;;
57025;SDS011;43961;52.940;6.834;2022-07-22T14:33:47;2.47;;;2.20;;
57025;SDS011;43961;52.940;6.834;2022-07-22T14:36:13;4.25;;;3.10;;
57025;SDS011;43961;52.940;6.834;2022-07-22T14:38:39;6.63;;;2.38;;
57025;SDS011;43961;52.940;6.834;2022-07-22T14:41:05;3.85;;;2.45;;
57025;SDS011;43961;52.940;6.834;2022-07-22T14:43:32;2.87;;;2.03;;
57025;SDS011;43961;52.940;6.834;2022-07-22T14:46:02;4.13;;;2.50;;
57025;SDS011;43961;52.940;6.834;2022-07-22T14:48:29;9.43;;;2.88;;
57025;SDS011;43961;52.940;6.834;2022-07-22T14:50:55;2.53;;;2.08;;
57025;SDS011;43961;52.940;6.834;2022-07-22T14:53:21;5.95;;;2.35;;
57025;SDS011;43961;52.940;6.834;2022-07-22T14:55:46;2.47;;;2.10;;
57025;SDS011;43961;52.940;6.834;2022-07-22T14:58:12;4.43;;;2.00;;
57025;SDS011;43961;52.940;6.834;2022-07-22T15:00:38;4.03;;;2.15;;
57025;SDS011;43961;52.940;6.834;2022-07-22T15:03:04;2.13;;;1.65;;
57025;SDS011;43961;52.940;6.834;2022-07-22T15:05:30;3.78;;;2.15;;
57025;SDS011;43961;52.940;6.834;2022-07-22T15:07:56;3.45;;;2.05;;
57025;SDS011;43961;52.940;6.834;2022-07-22T15:10:21;4.70;;;2.50;;
57025;SDS011;43961;52.940;6.834;2022-07-22T15:12:47;2.90;;;2.38;;
57025;SDS011;43961;52.940;6.834;2022-07-22T15:15:15;4.00;;;2.10;;
57025;SDS011;43961;52.940;6.834;2022-07-22T15:17:41;3.50;;;2.05;;
57025;SDS011;43961;52.940;6.834;2022-07-22T15:20:08;8.10;;;2.80;;
57025;SDS011;43961;52.940;6.834;2022-07-22T15:22:36;3.83;;;2.15;;